createdAt,value
2022-08-27T00:01:36.235Z,2.86
2022-08-27T00:06:43.853Z,2.85
2022-08-27T00:11:52.209Z,2.85
2022-08-27T00:17:00.382Z,2.86
2022-08-27T00:22:07.580Z,2.86
2022-08-27T00:27:15.496Z,2.85
2022-08-27T00:32:22.703Z,2.86
2022-08-27T00:37:30.841Z,2.86
2022-08-27T00:42:38.332Z,2.85
2022-08-27T00:47:47.284Z,2.85
2022-08-27T00:52:55.670Z,2.86
2022-08-27T00:58:02.045Z,2.85
2022-08-27T01:03:10.347Z,2.85
2022-08-27T01:08:18.647Z,2.85
2022-08-27T01:13:26.947Z,2.85
2022-08-27T01:18:35.033Z,2.86
2022-08-27T01:23:43.489Z,2.85
2022-08-27T01:28:51.272Z,2.85
2022-08-27T01:33:59.703Z,2.85
2022-08-27T01:39:07.445Z,2.86
2022-08-27T01:44:15.302Z,2.84
2022-08-27T01:49:22.858Z,2.86
2022-08-27T01:54:30.649Z,2.85
2022-08-27T01:59:37.818Z,2.86
2022-08-27T02:04:45.696Z,2.85
2022-08-27T02:09:53.028Z,2.85
2022-08-27T02:15:01.207Z,2.84
2022-08-27T02:20:09.178Z,2.85
2022-08-27T02:25:16.537Z,2.85
2022-08-27T02:30:23.827Z,2.85
2022-08-27T02:35:32.163Z,2.85
2022-08-27T02:40:37.972Z,2.85
2022-08-27T02:45:45.236Z,2.85
2022-08-27T02:50:51.860Z,2.86
2022-08-27T02:56:00.085Z,2.85
2022-08-27T03:01:06.787Z,2.84
2022-08-27T03:06:13.979Z,2.85
2022-08-27T03:11:21.294Z,2.85
2022-08-27T03:16:29.314Z,2.85
2022-08-27T03:21:35.597Z,2.85
2022-08-27T03:26:42.774Z,2.85
2022-08-27T03:31:49.999Z,2.85
2022-08-27T03:36:57.270Z,2.85
2022-08-27T03:42:06.161Z,2.86
2022-08-27T03:47:12.965Z,2.86
2022-08-27T03:52:21.337Z,2.85
2022-08-27T03:57:29.822Z,2.85
2022-08-27T04:02:37.918Z,2.86
2022-08-27T04:07:44.862Z,2.85
2022-08-27T04:12:52.952Z,2.84
2022-08-27T04:18:01.061Z,2.84
2022-08-27T04:23:23.762Z,2.84
2022-08-27T04:28:31.959Z,2.85
2022-08-27T04:33:40.221Z,2.85
2022-08-27T04:38:47.644Z,2.85
2022-08-27T04:43:55.119Z,2.86
2022-08-27T04:49:03.137Z,2.85
2022-08-27T04:54:09.498Z,2.86
2022-08-27T04:59:17.410Z,2.85
2022-08-27T05:04:24.759Z,2.85
2022-08-27T05:09:31.743Z,2.85
2022-08-27T05:14:38.939Z,2.86
2022-08-27T05:19:47.928Z,2.85
2022-08-27T05:24:55.284Z,2.85
2022-08-27T05:30:09.368Z,2.86
2022-08-27T05:35:16.060Z,2.84
2022-08-27T05:40:23.882Z,2.85
2022-08-27T05:45:32.395Z,2.86
2022-08-27T05:50:39.575Z,2.87
2022-08-27T05:55:47.918Z,2.86
2022-08-27T06:00:56.030Z,2.86
2022-08-27T06:06:03.525Z,2.86
2022-08-27T06:11:10.935Z,2.86
2022-08-27T06:16:18.207Z,2.86
2022-08-27T06:21:25.409Z,2.87
2022-08-27T06:26:33.555Z,2.86
2022-08-27T06:31:40.457Z,2.86
2022-08-27T06:36:48.247Z,2.87
2022-08-27T06:41:56.416Z,2.88
2022-08-27T06:47:04.410Z,2.88
2022-08-27T06:52:11.178Z,2.88
2022-08-27T06:57:18.502Z,2.89
2022-08-27T07:02:26.649Z,2.88
2022-08-27T07:07:34.009Z,2.89
2022-08-27T07:12:42.366Z,2.88
2022-08-27T07:17:49.676Z,2.9
2022-08-27T07:22:58.068Z,2.88
2022-08-27T07:28:06.292Z,2.89
2022-08-27T07:33:14.968Z,2.89
2022-08-27T07:38:23.165Z,2.89
2022-08-27T07:43:31.307Z,2.89
2022-08-27T07:48:43.186Z,2.89
2022-08-27T07:53:51.511Z,2.9
2022-08-27T07:58:59.176Z,2.9
2022-08-27T08:04:05.973Z,2.89
2022-08-27T08:09:13.857Z,2.89
2022-08-27T08:14:21.696Z,2.9
2022-08-27T08:19:29.238Z,2.9
2022-08-27T08:24:36.095Z,2.91
2022-08-27T08:29:44.469Z,2.91
2022-08-27T08:34:52.381Z,2.91
2022-08-27T08:40:00.254Z,2.9
2022-08-27T08:45:08.960Z,2.91
2022-08-27T08:50:15.237Z,2.91
2022-08-27T08:55:22.301Z,2.9
2022-08-27T09:00:30.476Z,2.91
2022-08-27T09:05:38.137Z,2.9
2022-08-27T09:10:44.868Z,2.9
2022-08-27T09:15:51.902Z,2.89
2022-08-27T09:20:59.143Z,2.9
2022-08-27T09:26:07.595Z,2.9
2022-08-27T09:31:14.787Z,2.9
2022-08-27T09:36:22.627Z,2.92
2022-08-27T09:41:29.821Z,2.9
2022-08-27T09:46:36.382Z,2.91
2022-08-27T09:51:43.581Z,2.91
2022-08-27T09:56:51.929Z,2.9
2022-08-27T10:01:59.347Z,2.91
2022-08-27T10:07:07.129Z,2.91
2022-08-27T10:12:14.957Z,2.91
2022-08-27T10:17:23.176Z,2.91
2022-08-27T10:22:30.622Z,2.92
2022-08-27T10:27:45.103Z,2.91
2022-08-27T10:32:52.030Z,2.92
2022-08-27T10:38:00.867Z,2.92
2022-08-27T10:43:08.963Z,2.92
2022-08-27T10:48:16.227Z,2.91
2022-08-27T10:53:24.663Z,2.92
2022-08-27T10:58:33.689Z,2.92
2022-08-27T11:03:41.781Z,2.93
2022-08-27T11:08:48.891Z,2.93
2022-08-27T11:13:57.625Z,2.92
2022-08-27T11:19:05.818Z,2.92
2022-08-27T11:24:12.388Z,2.93
2022-08-27T11:29:20.627Z,2.92
2022-08-27T11:34:27.675Z,2.92
2022-08-27T11:39:35.258Z,2.93
2022-08-27T11:44:41.819Z,2.92
2022-08-27T11:49:49.150Z,2.94
2022-08-27T11:54:57.215Z,2.93
2022-08-27T12:00:04.543Z,2.91
2022-08-27T12:05:11.896Z,2.92
2022-08-27T12:10:20.325Z,2.93
2022-08-27T12:15:27.918Z,2.92
2022-08-27T12:20:34.251Z,2.91
2022-08-27T12:25:42.010Z,2.91
2022-08-27T12:30:49.485Z,2.92
2022-08-27T12:35:57.660Z,2.91
2022-08-27T12:41:05.501Z,2.91
2022-08-27T12:46:13.346Z,2.91
2022-08-27T12:51:19.899Z,2.9
2022-08-27T12:56:27.099Z,2.89
2022-08-27T13:01:34.305Z,2.89
2022-08-27T13:06:41.597Z,2.9
2022-08-27T13:11:49.392Z,2.89
2022-08-27T13:16:57.520Z,2.89
2022-08-27T13:22:05.014Z,2.9
2022-08-27T13:27:12.890Z,2.9
2022-08-27T13:32:21.235Z,2.89
2022-08-27T13:37:29.184Z,2.89
2022-08-27T13:42:37.021Z,2.89
2022-08-27T13:47:44.731Z,2.89
2022-08-27T13:52:53.212Z,2.9
2022-08-27T13:57:59.259Z,2.89
2022-08-27T14:03:07.790Z,2.89
2022-08-27T14:08:16.207Z,2.89
2022-08-27T14:13:23.670Z,2.88
2022-08-27T14:18:31.310Z,2.88
2022-08-27T14:23:38.137Z,2.88
2022-08-27T14:28:45.883Z,2.88
2022-08-27T14:33:53.504Z,2.88
2022-08-27T14:39:00.060Z,2.89
2022-08-27T14:44:07.263Z,2.89
2022-08-27T14:49:13.851Z,2.9
2022-08-27T14:54:21.788Z,2.89
2022-08-27T14:59:28.853Z,2.91
2022-08-27T15:04:36.344Z,2.9
2022-08-27T15:09:43.893Z,2.91
2022-08-27T15:14:51.829Z,2.91
2022-08-27T15:19:59.580Z,2.91
2022-08-27T15:25:07.918Z,2.91
2022-08-27T15:30:16.161Z,2.92
2022-08-27T15:35:23.696Z,2.91
2022-08-27T15:40:31.400Z,2.91
2022-08-27T15:45:39.355Z,2.9
2022-08-27T15:50:46.104Z,2.89
2022-08-27T15:55:53.178Z,2.89
2022-08-27T16:01:01.205Z,2.89
2022-08-27T16:06:09.005Z,2.89
2022-08-27T16:11:16.065Z,2.89
2022-08-27T16:16:25.056Z,2.88
2022-08-27T16:21:33.070Z,2.88
2022-08-27T16:26:40.337Z,2.89
2022-08-27T16:32:42.340Z,2.88
2022-08-27T16:32:43.598Z,2.88
2022-08-27T16:33:18.303Z,2.89
2022-08-27T16:38:25.033Z,2.88
2022-08-27T16:43:32.825Z,2.88
2022-08-27T16:48:40.737Z,2.88
2022-08-27T16:53:48.405Z,2.89
2022-08-27T16:58:56.249Z,2.88
2022-08-27T17:04:03.448Z,2.89
2022-08-27T17:09:11.256Z,2.88
2022-08-27T17:14:18.460Z,2.88
2022-08-27T17:19:25.661Z,2.88
2022-08-27T17:24:34.355Z,2.88
2022-08-27T17:29:41.345Z,2.88
2022-08-27T17:34:49.179Z,2.88
2022-08-27T17:39:56.406Z,2.88
2022-08-27T17:45:04.983Z,2.87
2022-08-27T17:50:12.115Z,2.86
2022-08-27T17:55:18.905Z,2.87
2022-08-27T18:00:25.821Z,2.87
2022-08-27T18:05:33.067Z,2.86
2022-08-27T18:10:40.238Z,2.86
2022-08-27T18:15:48.147Z,2.88
2022-08-27T18:20:56.134Z,2.86
2022-08-27T18:26:04.745Z,2.87
2022-08-27T18:31:12.370Z,2.86
2022-08-27T18:36:19.544Z,2.86
2022-08-27T18:41:27.255Z,2.86
2022-08-27T18:46:34.482Z,2.86
2022-08-27T18:51:42.827Z,2.85
2022-08-27T18:56:50.504Z,2.86
2022-08-27T19:01:57.364Z,2.86
2022-08-27T19:07:04.545Z,2.86
2022-08-27T19:12:11.742Z,2.87
2022-08-27T19:17:18.966Z,2.86
2022-08-27T19:22:28.457Z,2.86
2022-08-27T19:27:35.331Z,2.86
2022-08-27T19:32:43.408Z,2.86
2022-08-27T19:37:51.163Z,2.86
2022-08-27T19:42:58.716Z,2.86
2022-08-27T19:48:05.992Z,2.86
2022-08-27T19:53:14.154Z,2.86
2022-08-27T19:58:22.651Z,2.86
2022-08-27T20:03:28.863Z,2.86
2022-08-27T20:08:36.729Z,2.86
2022-08-27T20:18:21.202Z,2.86
2022-08-27T20:23:28.214Z,2.86
2022-08-27T20:28:35.530Z,2.86
2022-08-27T20:33:42.686Z,2.86
2022-08-27T20:38:49.903Z,2.86
2022-08-27T20:43:57.908Z,2.86
2022-08-27T20:49:05.494Z,2.86
2022-08-27T20:54:14.324Z,2.86
2022-08-27T20:59:22.236Z,2.86
2022-08-27T21:04:29.886Z,2.86
2022-08-27T21:09:37.497Z,2.86
2022-08-27T21:14:45.527Z,2.86
2022-08-27T21:19:54.259Z,2.86
2022-08-27T21:25:00.876Z,2.86
2022-08-27T21:30:08.946Z,2.86
2022-08-27T21:35:16.062Z,2.86
2022-08-27T21:40:24.465Z,2.86
2022-08-27T21:45:31.752Z,2.85
2022-08-27T21:50:39.023Z,2.85
2022-08-27T21:55:47.277Z,2.86
2022-08-27T22:00:54.618Z,2.86
2022-08-27T22:06:02.453Z,2.85
2022-08-27T22:11:10.689Z,2.86
2022-08-27T22:16:18.775Z,2.85
2022-08-27T22:21:25.977Z,2.85
2022-08-27T22:26:33.820Z,2.85
2022-08-27T22:31:41.043Z,2.84
2022-08-27T22:36:49.495Z,2.85
2022-08-27T22:41:57.339Z,2.86
2022-08-27T22:47:04.540Z,2.85
2022-08-27T22:52:12.257Z,2.85
2022-08-27T22:57:21.364Z,2.85
2022-08-27T23:02:28.704Z,2.85
2022-08-27T23:07:37.599Z,2.85
2022-08-27T23:12:44.546Z,2.84
2022-08-27T23:17:52.627Z,2.84
2022-08-27T23:22:59.416Z,2.85
2022-08-27T23:28:06.619Z,2.85
2022-08-27T23:33:14.464Z,2.84
2022-08-27T23:38:22.809Z,2.84
2022-08-27T23:43:30.177Z,2.85
2022-08-27T23:48:37.372Z,2.84
2022-08-27T23:53:43.926Z,2.84
2022-08-27T23:58:51.365Z,2.85
